Schnee/Eis Gültig von: 26-02-2020 18:00 bis: 27-02-2020 09:00 Warnung für: Schnee/Eis Gefahrenstufe: Gelb info button
deutsch:
Es muss mit Glätte durch verbreitet überfrierende Nässe gerechnet werden.

english:
There is a risk of widespread icy surfaces. (Level 1 of 3).cause: widespread ice formation 

Webcam Vorhersage DWD Regenradar Wetterlage NRW Blitze Wind GFS-Modell
webcam


Kleve - Düffelward SSO more information Kleve - Düffelward SSO


Goch more information Goch


Warnung für Schnee und Eis more information rain snow radar


Weitere Templates dieser Seite und andere Webseiten:

Meteotemplate

Awekas - Template

weather34 - Template

Wetter im Erzgebirge


te
World Weather Websites
Bo-Rox Wetter Topsites List
 

METAR-Meldungen aus der Umgebung

   
EDLV - Goch
Aktualisierung: 26-02-2020 23:50
Nicht aktuell
Klar  
Klar  
   Wind: SW 13 km/h
Wind: SW 13 km/h
Temperatur: 3°C
Gefühlt: -1°C
Taupunkt: 1°C
Luftfeuchte: 87%
Luftdruck: 1005 hPa
Sichtbarkeit: More than 10 km
Bewölkung: Klar
EDLV 262250Z 23007KT CAVOK 03/01 Q1005
EDLV - Emmerich
Aktualisierung: 26-02-2020 23:50
Nicht aktuell
Klar  
Klar  
   Wind: SW 13 km/h
Wind: SW 13 km/h
Temperatur: 3°C
Gefühlt: -1°C
Taupunkt: 1°C
Luftfeuchte: 87%
Luftdruck: 1005 hPa
Sichtbarkeit: More than 10 km
Bewölkung: Klar
EDLV 262250Z 23007KT CAVOK 03/01 Q1005
EHDL - Nijmegen
Aktualisierung: 27-02-2020 04:25
Nebel, Bewölkt  
Nebel, Bewölkt  
   Wind: SSW 14.8 km/h
Wind: SSW 14.8 km/h
Temperatur: 1°C
Gefühlt: -3°C
Taupunkt: 1°C
Luftfeuchte: 100%
Luftdruck: 1004 hPa
Bewölkt: Bewölkt
Sichtbarkeit: 8 km
Bewölkung: Bewölkt 17000 ft
EHDL 270325Z AUTO 20008KT 140V220 8000 BR OVC170 01/01 Q1004 BLU
EHDL - Arnhem
Aktualisierung: 27-02-2020 04:25
Nebel, Bewölkt  
Nebel, Bewölkt  
   Wind: SSW 14.8 km/h
Wind: SSW 14.8 km/h
Temperatur: 1°C
Gefühlt: -3°C
Taupunkt: 1°C
Luftfeuchte: 100%
Luftdruck: 1004 hPa
Bewölkt: Bewölkt
Sichtbarkeit: 8 km
Bewölkung: Bewölkt 17000 ft
EHDL 270325Z AUTO 20008KT 140V220 8000 BR OVC170 01/01 Q1004 BLU
EDLV - Kalkar
Aktualisierung: 26-02-2020 23:50
Nicht aktuell
Klar  
Klar  
   Wind: SW 13 km/h
Wind: SW 13 km/h
Temperatur: 3°C
Gefühlt: -1°C
Taupunkt: 1°C
Luftfeuchte: 87%
Luftdruck: 1005 hPa
Sichtbarkeit: More than 10 km
Bewölkung: Klar
EDLV 262250Z 23007KT CAVOK 03/01 Q1005
 

Script entwickelt von  Saratoga-weather.org Angepasst für das Template von  Weerstation Leuven

Sie finden Wetter-Infos dieser Station auch auf:

UK Metoffice

European Weather Network

WeatherCloud

Weather Underground

Germany Weather Network

AWEKAS

Neuwetter

Wettersektor

Von uns verwendete Ausrüstung:

Wetterstation
Davis Vantage Pro2

Wetterprogramm
Meteobridge

WetterComputer
Computer

Davis Vantage Pro2

Meteobridge

Computer